Time;durP1;ratioP1;P1;durP2;ratioP2;P2;SDS_P1;SDS_P2;PMS_P1;PMS_P2;Temp;Humidity;BMP_temperature;BMP_pressure;BME280_temperature;BME280_humidity;BME280_pressure;Samples;Min_cycle;Max_cycle;Signal;HPM_P1;HPM_P2
2024/01/25 00:02:08;;;;;;;;;;;;;;;13.20;43.63;100202.28;4476229;32;34141;-82
2024/01/25 00:04:35;;;;;;;;;;;;;;;13.02;43.82;100182.50;4478204;32;34138;-81
2024/01/25 00:07:03;;;;;;;;;;;;;;;12.53;45.06;100196.00;4482301;32;35061;-82
2024/01/25 00:09:31;;;;;;;;;;;;;;;12.31;45.58;100194.19;4456566;32;34557;-81
2024/01/25 00:11:58;;;;;;;;;;;;;;;12.50;45.18;100180.31;4455892;32;31997;-81
2024/01/25 00:14:26;;;;;;;;;;;;;;;12.57;44.85;100182.31;4474967;32;34604;-81
2024/01/25 00:16:54;;;;;;;;;;;;;;;12.82;44.29;100184.25;4472130;32;33192;-81
2024/01/25 00:19:21;;;;;;;;;;;;;;;12.72;44.53;100182.09;4468649;32;34618;-80
2024/01/25 00:21:49;;;;;;;;;;;;;;;12.45;44.75;100180.09;4476958;32;33944;-81
2024/01/25 00:24:16;;;;;;;;;;;;;;;12.85;44.08;100175.72;4476737;32;34054;-82
2024/01/25 00:26:44;;;;;;;;;;;;;;;13.01;43.67;100165.09;4465337;32;32962;-81
2024/01/25 00:29:11;;;;;;;;;;;;;;;12.80;43.84;100175.50;4470833;32;34011;-82
2024/01/25 00:31:38;;;;;;;;;;;;;;;12.55;44.37;100160.59;4468797;32;32821;-81
2024/01/25 00:34:06;;;;;;;;;;;;;;;12.42;44.41;100166.97;4475905;32;35028;-81
2024/01/25 00:36:35;;;;;;;;;;;;;;;12.73;44.01;100174.38;4474860;32;34012;-81
2024/01/25 00:39:03;;;;;;;;;;;;;;;12.39;44.60;100180.72;4475710;32;34520;-81
2024/01/25 00:41:30;;;;;;;;;;;;;;;12.86;43.80;100174.88;4476189;32;33120;-81
2024/01/25 00:43:58;;;;;;;;;;;;;;;12.51;44.02;100177.75;4478496;32;34011;-81
2024/01/25 00:46:25;;;;;;;;;;;;;;;12.83;43.55;100180.84;4455408;32;34201;-81
2024/01/25 00:48:53;;;;;;;;;;;;;;;12.66;43.83;100180.13;4470904;32;34022;-81
2024/01/25 00:51:22;;;;;;;;;;;;;;;13.01;43.01;100183.28;4475794;32;32972;-81
2024/01/25 00:53:50;;;;;;;;;;;;;;;12.94;43.07;100183.88;4479488;32;33972;-81
2024/01/25 00:56:18;;;;;;;;;;;;;;;12.91;43.09;100179.44;4475067;32;34298;-82
2024/01/25 00:58:45;;;;;;;;;;;;;;;13.08;42.77;100181.84;4482136;32;33599;-82
2024/01/25 01:01:13;;;;;;;;;;;;;;;12.97;42.98;100173.59;4478228;32;33523;-81
2024/01/25 01:03:41;;;;;;;;;;;;;;;12.77;43.26;100170.19;4473127;32;34552;-81
2024/01/25 01:06:08;;;;;;;;;;;;;;;13.10;42.28;100183.69;4471051;32;34942;-81
2024/01/25 01:08:36;;;;;;;;;;;;;;;12.92;42.81;100175.13;4468473;32;34317;-82
2024/01/25 01:11:05;;;;;;;;;;;;;;;13.38;41.83;100182.22;4470319;32;34255;-82
2024/01/25 01:13:32;;;;;;;;;;;;;;;13.63;41.17;100177.97;4470800;32;34625;-82
2024/01/25 01:15:59;;;;;;;;;;;;;;;13.56;41.46;100188.16;4462901;32;34829;-82
2024/01/25 01:18:27;;;;;;;;;;;;;;;13.03;42.54;100189.44;4478974;32;33478;-81
2024/01/25 01:20:55;;;;;;;;;;;;;;;12.87;42.76;100190.53;4455058;32;32869;-82
2024/01/25 01:23:23;;;;;;;;;;;;;;;13.56;41.34;100188.16;4464411;32;33547;-80
2024/01/25 01:25:50;;;;;;;;;;;;;;;14.12;40.08;100187.62;4467053;32;32732;-82
2024/01/25 01:28:18;;;;;;;;;;;;;;;13.68;40.97;100182.53;4468908;32;34886;-81
2024/01/25 01:30:45;;;;;;;;;;;;;;;13.42;41.33;100178.91;4476601;32;33100;-81
2024/01/25 01:33:13;;;;;;;;;;;;;;;13.47;41.42;100192.97;4454308;32;35250;-82
2024/01/25 01:35:41;;;;;;;;;;;;;;;13.66;41.05;100183.31;4477540;32;35141;-81
2024/01/25 01:38:09;;;;;;;;;;;;;;;13.47;41.40;100172.16;4461747;32;33767;-82
2024/01/25 01:40:37;;;;;;;;;;;;;;;13.52;41.56;100186.25;4449845;32;33142;-82
2024/01/25 01:43:05;;;;;;;;;;;;;;;13.98;40.59;100186.22;4478860;32;34149;-82
2024/01/25 01:45:32;;;;;;;;;;;;;;;13.41;41.56;100182.34;4471247;32;34270;-82
2024/01/25 01:48:00;;;;;;;;;;;;;;;13.07;42.30;100170.53;4470397;32;34254;-81
2024/01/25 01:50:27;;;;;;;;;;;;;;;13.75;40.73;100170.59;4470816;32;33535;-81
2024/01/25 01:52:55;;;;;;;;;;;;;;;13.55;41.08;100168.12;4461295;32;34187;-81
2024/01/25 01:55:24;;;;;;;;;;;;;;;13.53;41.18;100158.50;4454786;32;34091;-82
2024/01/25 01:57:51;;;;;;;;;;;;;;;13.35;41.57;100166.50;4463899;32;33258;-81
2024/01/25 02:00:19;;;;;;;;;;;;;;;13.43;41.62;100159.88;4448418;32;33962;-80
2024/01/25 02:02:47;;;;;;;;;;;;;;;13.21;42.03;100165.00;4469458;32;33098;-81
2024/01/25 02:05:15;;;;;;;;;;;;;;;13.46;41.57;100174.69;4470759;32;33626;-81
2024/01/25 02:07:42;;;;;;;;;;;;;;;13.59;41.27;100157.84;4452580;32;33561;-81
2024/01/25 02:10:09;;;;;;;;;;;;;;;13.33;41.88;100152.53;4457319;32;33804;-82
2024/01/25 02:12:38;;;;;;;;;;;;;;;13.08;42.31;100154.12;4469614;32;33590;-81
2024/01/25 02:15:05;;;;;;;;;;;;;;;13.20;42.27;100139.84;4463502;32;34211;-81
2024/01/25 02:17:33;;;;;;;;;;;;;;;12.81;42.85;100142.63;4477867;32;34752;-81
2024/01/25 02:20:03;;;;;;;;;;;;;;;12.53;43.79;100133.66;4452763;32;33126;-81
2024/01/25 02:22:30;;;;;;;;;;;;;;;12.15;44.25;100126.00;4471597;32;33909;-81
2024/01/25 02:24:58;;;;;;;;;;;;;;;12.21;44.37;100125.37;4473420;32;33432;-82
2024/01/25 02:27:25;;;;;;;;;;;;;;;12.76;43.61;100121.59;4478059;32;34663;-81
2024/01/25 02:29:53;;;;;;;;;;;;;;;12.51;44.01;100120.59;4474898;32;33039;-81
2024/01/25 02:32:21;;;;;;;;;;;;;;;12.77;43.58;100133.78;4474993;32;33996;-82
2024/01/25 02:34:49;;;;;;;;;;;;;;;12.15;44.87;100114.72;4472448;32;33952;-82
2024/01/25 02:37:16;;;;;;;;;;;;;;;12.27;44.82;100120.44;4475669;32;34883;-82
2024/01/25 02:39:44;;;;;;;;;;;;;;;12.35;44.75;100112.97;4471632;32;33600;-82
2024/01/25 02:42:13;;;;;;;;;;;;;;;12.73;44.04;100117.19;4453788;32;34087;-82
2024/01/25 02:44:40;;;;;;;;;;;;;;;12.67;43.92;100124.72;4474259;32;34197;-82
2024/01/25 02:47:07;;;;;;;;;;;;;;;12.59;44.25;100115.69;4468177;32;33709;-81
2024/01/25 02:49:35;;;;;;;;;;;;;;;12.52;44.32;100111.09;4468919;32;33188;-81
2024/01/25 02:52:03;;;;;;;;;;;;;;;12.68;44.12;100116.09;4463329;32;34034;-81
2024/01/25 02:54:34;;;;;;;;;;;;;;;12.68;44.15;100118.69;4470214;32;33954;-82
2024/01/25 02:57:01;;;;;;;;;;;;;;;13.31;42.84;100116.06;4463858;32;34896;-81
2024/01/25 02:59:28;;;;;;;;;;;;;;;13.28;43.20;100122.81;4474192;32;33387;-81
2024/01/25 03:01:56;;;;;;;;;;;;;;;13.21;43.41;100120.78;4461859;32;34877;-82
2024/01/25 03:04:24;;;;;;;;;;;;;;;12.97;43.63;100116.41;4458540;32;34309;-81
2024/01/25 03:06:52;;;;;;;;;;;;;;;13.12;43.59;100114.41;4473782;32;33663;-82
2024/01/25 03:09:21;;;;;;;;;;;;;;;13.09;43.84;100129.00;4462812;32;31252;-82
2024/01/25 03:11:48;;;;;;;;;;;;;;;13.09;43.92;100132.47;4473393;32;34911;-81
2024/01/25 03:14:16;;;;;;;;;;;;;;;13.05;44.24;100130.59;4474920;32;34468;-82
2024/01/25 03:16:43;;;;;;;;;;;;;;;13.32;44.16;100137.75;4479028;32;34135;-81
2024/01/25 03:19:11;;;;;;;;;;;;;;;12.89;45.36;100143.81;4473359;32;32899;-83
2024/01/25 03:21:40;;;;;;;;;;;;;;;13.07;45.16;100138.44;4457435;32;33359;-84
2024/01/25 03:24:07;;;;;;;;;;;;;;;13.28;44.90;100143.62;4472796;32;33759;-83
2024/01/25 03:26:35;;;;;;;;;;;;;;;12.94;45.58;100143.16;4455986;32;33952;-83
2024/01/25 03:29:02;;;;;;;;;;;;;;;12.79;46.04;100140.81;4459221;32;33255;-82
2024/01/25 03:31:30;;;;;;;;;;;;;;;12.88;46.00;100140.28;4461355;32;34385;-83
2024/01/25 03:34:15;;;;;;;;;;;;;;;13.24;45.22;100137.41;4466919;32;35746;-83
2024/01/25 03:36:43;;;;;;;;;;;;;;;12.93;46.00;100140.50;4476486;32;34053;-84
2024/01/25 03:39:11;;;;;;;;;;;;;;;13.22;45.26;100139.06;4471970;32;33792;-83
2024/01/25 03:41:39;;;;;;;;;;;;;;;12.64;46.55;100137.59;4469610;32;34191;-83
2024/01/25 03:44:06;;;;;;;;;;;;;;;13.17;45.54;100135.37;4469253;32;34053;-83
2024/01/25 03:46:34;;;;;;;;;;;;;;;13.12;45.48;100132.63;4474484;32;34110;-84
2024/01/25 03:49:01;;;;;;;;;;;;;;;13.15;45.34;100124.03;4464097;32;33932;-83
2024/01/25 03:51:29;;;;;;;;;;;;;;;13.32;44.96;100133.41;4474242;32;32957;-83
2024/01/25 03:53:58;;;;;;;;;;;;;;;13.31;45.00;100126.47;4471611;32;33741;-83
2024/01/25 03:56:26;;;;;;;;;;;;;;;13.23;44.83;100145.16;4478716;32;33959;-82
2024/01/25 03:58:54;;;;;;;;;;;;;;;13.52;44.36;100136.81;4471474;32;32519;-84
2024/01/25 04:01:21;;;;;;;;;;;;;;;13.25;44.56;100117.47;4475202;32;34737;-84
2024/01/25 04:03:49;;;;;;;;;;;;;;;13.16;44.76;100137.09;4473659;32;33837;-83
2024/01/25 04:06:17;;;;;;;;;;;;;;;13.31;44.41;100134.25;4471276;32;33725;-82
2024/01/25 04:08:44;;;;;;;;;;;;;;;13.26;44.22;100135.75;4460294;32;34100;-83
2024/01/25 04:11:13;;;;;;;;;;;;;;;13.06;44.33;100137.56;4479007;32;34072;-82
2024/01/25 04:13:41;;;;;;;;;;;;;;;13.18;44.33;100140.66;4458589;32;34653;-83
2024/01/25 04:16:08;;;;;;;;;;;;;;;13.22;44.18;100133.84;4464680;32;34169;-83
2024/01/25 04:18:36;;;;;;;;;;;;;;;13.70;43.19;100121.00;4474921;32;33923;-83
2024/01/25 04:21:03;;;;;;;;;;;;;;;13.65;43.46;100132.06;4473263;32;34938;-83
2024/01/25 04:23:31;;;;;;;;;;;;;;;13.52;43.48;100129.00;4473289;32;33972;-83
2024/01/25 04:25:58;;;;;;;;;;;;;;;13.00;44.71;100119.13;4471538;32;33875;-83
2024/01/25 04:28:26;;;;;;;;;;;;;;;13.41;44.04;100119.91;4475882;32;33078;-83
2024/01/25 04:30:53;;;;;;;;;;;;;;;13.50;43.84;100125.47;4480381;32;34993;-84
2024/01/25 04:33:21;;;;;;;;;;;;;;;13.62;43.52;100135.44;4476729;32;34134;-83
2024/01/25 04:35:49;;;;;;;;;;;;;;;13.45;44.18;100137.41;4468472;32;34210;-83
2024/01/25 04:38:16;;;;;;;;;;;;;;;13.45;44.01;100136.50;4471695;32;33108;-83
2024/01/25 04:40:44;;;;;;;;;;;;;;;13.62;43.70;100137.12;4471705;32;34814;-82
2024/01/25 04:43:12;;;;;;;;;;;;;;;13.61;43.85;100151.00;4471189;32;35096;-83
2024/01/25 04:45:39;;;;;;;;;;;;;;;13.30;44.31;100150.69;4467693;32;34099;-83
2024/01/25 04:48:07;;;;;;;;;;;;;;;13.37;44.27;100164.84;4456631;32;32549;-82
2024/01/25 04:50:35;;;;;;;;;;;;;;;13.29;44.62;100181.81;4463741;32;33539;-83
2024/01/25 04:53:02;;;;;;;;;;;;;;;13.82;43.60;100162.22;4474005;32;33775;-83
2024/01/25 04:55:30;;;;;;;;;;;;;;;13.67;43.71;100182.47;4463878;32;34133;-83
2024/01/25 04:57:57;;;;;;;;;;;;;;;13.51;44.24;100181.00;4474340;32;32683;-83
2024/01/25 05:00:25;;;;;;;;;;;;;;;13.29;44.42;100187.00;4477081;32;32611;-83
2024/01/25 05:02:52;;;;;;;;;;;;;;;13.51;43.91;100188.78;4463999;32;33697;-82
2024/01/25 05:05:20;;;;;;;;;;;;;;;13.29;44.40;100192.22;4470401;32;34366;-83
2024/01/25 05:07:48;;;;;;;;;;;;;;;13.20;44.58;100187.53;4480766;32;33513;-83
2024/01/25 05:10:16;;;;;;;;;;;;;;;13.29;44.52;100189.59;4476963;32;33862;-83
2024/01/25 05:12:43;;;;;;;;;;;;;;;13.05;44.97;100190.41;4468343;32;33444;-84
2024/01/25 05:15:11;;;;;;;;;;;;;;;13.41;44.40;100177.13;4469886;32;34263;-83
2024/01/25 05:17:38;;;;;;;;;;;;;;;13.62;43.67;100176.19;4471450;32;32730;-83
2024/01/25 05:20:06;;;;;;;;;;;;;;;13.40;44.05;100164.94;4470482;32;34284;-83
2024/01/25 05:22:40;;;;;;;;;;;;;;;13.23;44.31;100181.56;4463271;32;34245;-83
2024/01/25 05:25:08;;;;;;;;;;;;;;;13.13;44.57;100170.81;4461901;32;34332;-83
2024/01/25 05:27:35;;;;;;;;;;;;;;;13.15;44.41;100181.25;4472924;32;32959;-83
2024/01/25 05:30:03;;;;;;;;;;;;;;;13.63;43.56;100168.44;4471409;32;32983;-83
2024/01/25 05:32:30;;;;;;;;;;;;;;;13.10;44.40;100186.28;4472292;32;33314;-83
2024/01/25 05:34:58;;;;;;;;;;;;;;;13.29;44.08;100181.81;4475511;32;34661;-83
2024/01/25 05:37:26;;;;;;;;;;;;;;;13.42;44.04;100184.09;4460139;32;31809;-83
2024/01/25 05:39:54;;;;;;;;;;;;;;;13.05;44.81;100177.41;4477299;32;33273;-83
2024/01/25 05:42:21;;;;;;;;;;;;;;;13.46;44.11;100174.69;4468612;32;34093;-83
2024/01/25 05:44:49;;;;;;;;;;;;;;;13.40;44.19;100175.34;4464612;32;33521;-83
2024/01/25 05:47:16;;;;;;;;;;;;;;;13.62;43.85;100171.88;4470356;32;33270;-83
2024/01/25 05:49:44;;;;;;;;;;;;;;;13.74;43.66;100171.47;4463521;32;33178;-83
2024/01/25 05:52:12;;;;;;;;;;;;;;;13.12;45.09;100163.81;4476988;32;33679;-83
2024/01/25 05:54:40;;;;;;;;;;;;;;;12.97;45.51;100163.19;4455836;32;32723;-83
2024/01/25 05:57:07;;;;;;;;;;;;;;;13.03;45.60;100168.66;4473079;32;33092;-82
2024/01/25 05:59:34;;;;;;;;;;;;;;;12.98;45.36;100152.87;4444694;32;32893;-83
2024/01/25 06:02:02;;;;;;;;;;;;;;;13.48;44.51;100168.75;4472802;32;34569;-82
2024/01/25 06:04:31;;;;;;;;;;;;;;;12.99;45.59;100164.16;4462123;32;34236;-83
2024/01/25 06:06:59;;;;;;;;;;;;;;;13.00;45.70;100158.13;4469699;32;33433;-83
2024/01/25 06:09:27;;;;;;;;;;;;;;;12.81;46.32;100166.88;4470671;32;34166;-82
2024/01/25 06:11:55;;;;;;;;;;;;;;;12.47;46.82;100156.78;4470230;32;33199;-83
2024/01/25 06:14:22;;;;;;;;;;;;;;;12.73;46.36;100157.88;4471884;32;33878;-83
2024/01/25 06:16:50;;;;;;;;;;;;;;;13.06;45.54;100154.91;4478693;32;33515;-81
2024/01/25 06:19:18;;;;;;;;;;;;;;;12.45;46.79;100161.03;4474345;32;33662;-83
2024/01/25 06:21:46;;;;;;;;;;;;;;;12.45;46.88;100161.91;4459901;32;35003;-82
2024/01/25 06:24:13;;;;;;;;;;;;;;;12.10;47.57;100156.06;4469736;32;33465;-83
2024/01/25 06:26:41;;;;;;;;;;;;;;;12.31;47.22;100169.09;4478694;32;33913;-83
2024/01/25 06:29:09;;;;;;;;;;;;;;;12.59;46.47;100157.28;4469137;32;34860;-83
2024/01/25 06:31:43;;;;;;;;;;;;;;;12.23;47.04;100172.16;4469731;32;34320;-83
2024/01/25 06:34:11;;;;;;;;;;;;;;;12.31;46.87;100169.09;4456657;32;34512;-82
2024/01/25 06:36:39;;;;;;;;;;;;;;;12.07;47.29;100162.81;4442708;32;33014;-83
2024/01/25 06:39:07;;;;;;;;;;;;;;;12.13;47.11;100160.50;4478766;32;33765;-83
2024/01/25 06:41:34;;;;;;;;;;;;;;;12.47;46.39;100174.97;4462609;32;34989;-83
2024/01/25 06:44:02;;;;;;;;;;;;;;;12.46;46.16;100162.78;4456634;32;32635;-83
2024/01/25 06:46:30;;;;;;;;;;;;;;;12.58;45.81;100171.12;4458936;32;32359;-84
2024/01/25 06:48:58;;;;;;;;;;;;;;;12.72;45.53;100177.78;4472206;32;33694;-83
2024/01/25 06:51:25;;;;;;;;;;;;;;;12.88;45.19;100178.41;4476150;32;33739;-83
2024/01/25 06:53:53;;;;;;;;;;;;;;;12.58;45.77;100179.78;4476264;32;33961;-83
2024/01/25 06:56:21;;;;;;;;;;;;;;;12.93;44.70;100166.50;4459469;32;33733;-83
2024/01/25 06:58:48;;;;;;;;;;;;;;;13.17;44.29;100162.31;4459717;32;33798;-83
2024/01/25 07:01:21;;;;;;;;;;;;;;;12.99;44.50;100156.34;4455472;32;33409;-83
2024/01/25 07:03:51;;;;;;;;;;;;;;;12.73;44.76;100158.78;4472106;32;34649;-83
2024/01/25 07:06:20;;;;;;;;;;;;;;;12.84;44.93;100141.00;4474458;32;34028;-83
2024/01/25 07:08:47;;;;;;;;;;;;;;;13.15;44.18;100153.56;4476647;32;34579;-83
2024/01/25 07:11:16;;;;;;;;;;;;;;;13.05;44.22;100172.19;4469990;32;34182;-83
2024/01/25 07:13:44;;;;;;;;;;;;;;;13.08;44.15;100169.72;4474708;32;34064;-83
2024/01/25 07:16:11;;;;;;;;;;;;;;;12.79;44.54;100164.22;4457460;32;32552;-83
2024/01/25 07:18:39;;;;;;;;;;;;;;;12.53;44.88;100165.69;4469768;32;34095;-83
2024/01/25 07:21:06;;;;;;;;;;;;;;;12.77;44.60;100168.47;4454597;32;34081;-82
2024/01/25 07:23:34;;;;;;;;;;;;;;;12.88;43.97;100162.81;4478502;32;34847;-80
2024/01/25 07:26:02;;;;;;;;;;;;;;;13.29;43.43;100155.78;4478616;32;33942;-83
2024/01/25 07:28:29;;;;;;;;;;;;;;;13.33;43.69;100147.34;4460917;32;34979;-83
2024/01/25 07:30:56;;;;;;;;;;;;;;;13.24;43.33;100142.63;4460938;32;33028;-82
2024/01/25 07:33:25;;;;;;;;;;;;;;;12.60;44.61;100138.28;4473539;32;34113;-81
2024/01/25 07:35:52;;;;;;;;;;;;;;;12.57;44.82;100145.94;4471224;32;32839;-83
2024/01/25 07:38:20;;;;;;;;;;;;;;;12.45;45.14;100145.44;4470130;32;34390;-85
2024/01/25 07:40:48;;;;;;;;;;;;;;;12.60;44.80;100140.88;4472974;32;34255;-83
2024/01/25 07:43:15;;;;;;;;;;;;;;;12.91;44.07;100147.34;4463493;32;33393;-84
2024/01/25 07:45:43;;;;;;;;;;;;;;;12.36;45.32;100126.03;4474001;32;33474;-83
2024/01/25 07:48:10;;;;;;;;;;;;;;;12.58;44.86;100129.53;4472694;32;34752;-83
2024/01/25 07:50:42;;;;;;;;;;;;;;;12.71;44.25;100108.44;4475157;32;33211;-83
2024/01/25 07:53:12;;;;;;;;;;;;;;;13.01;43.74;100117.41;4456136;32;33909;-81
2024/01/25 07:55:39;;;;;;;;;;;;;;;13.14;43.10;100110.16;4478773;32;33414;-83
2024/01/25 07:58:06;;;;;;;;;;;;;;;12.90;42.88;100125.69;4476170;32;33918;-82
2024/01/25 08:00:34;;;;;;;;;;;;;;;12.91;42.48;100127.44;4470191;32;33986;-82
2024/01/25 08:03:02;;;;;;;;;;;;;;;12.54;42.45;100125.03;4468397;32;33700;-82
2024/01/25 08:05:30;;;;;;;;;;;;;;;12.94;41.55;100126.66;4471803;32;33099;-82
2024/01/25 08:08:11;;;;;;;;;;;;;;;13.61;40.08;100149.28;4456949;32;34220;-81
2024/01/25 08:10:39;;;;;;;;;;;;;;;14.13;39.19;100145.09;4459721;32;33925;-80
2024/01/25 08:13:06;;;;;;;;;;;;;;;13.86;39.81;100153.69;4457234;32;33894;-81
2024/01/25 08:15:35;;;;;;;;;;;;;;;14.14;39.64;100146.91;4462958;32;34071;-82
2024/01/25 08:18:03;;;;;;;;;;;;;;;14.04;39.79;100147.38;4459297;32;33753;-81
2024/01/25 08:20:31;;;;;;;;;;;;;;;13.90;40.33;100171.19;4456965;32;34151;-82
2024/01/25 08:22:59;;;;;;;;;;;;;;;14.22;39.64;100163.69;4456642;32;33987;-81
2024/01/25 08:25:26;;;;;;;;;;;;;;;14.21;40.10;100163.63;4458203;32;33838;-82
2024/01/25 08:27:55;;;;;;;;;;;;;;;14.79;39.09;100170.88;4458432;32;33831;-82
2024/01/25 08:30:23;;;;;;;;;;;;;;;14.35;40.09;100165.91;4459960;32;34222;-81
2024/01/25 08:32:51;;;;;;;;;;;;;;;14.01;40.90;100168.12;4459783;32;34232;-81
2024/01/25 08:35:19;;;;;;;;;;;;;;;14.14;41.19;100172.94;4439963;32;34009;-81
2024/01/25 08:37:47;;;;;;;;;;;;;;;14.38;40.45;100182.47;4454372;32;34377;-82
2024/01/25 08:40:15;;;;;;;;;;;;;;;14.22;40.81;100187.13;4457733;32;33990;-82
2024/01/25 08:42:42;;;;;;;;;;;;;;;13.82;41.39;100196.06;4455434;32;34738;-81
2024/01/25 08:45:11;;;;;;;;;;;;;;;14.15;40.94;100195.53;4462508;32;33118;-82
2024/01/25 08:47:44;;;;;;;;;;;;;;;14.32;40.27;100181.41;4459168;32;33688;-82
2024/01/25 08:50:12;;;;;;;;;;;;;;;13.94;40.76;100196.50;4467317;32;34440;-82
2024/01/25 08:52:40;;;;;;;;;;;;;;;14.44;40.05;100193.09;4468692;32;34199;-81
2024/01/25 08:55:09;;;;;;;;;;;;;;;14.74;39.51;100189.00;4459492;32;33508;-80
2024/01/25 08:57:39;;;;;;;;;;;;;;;14.18;40.17;100195.66;4460833;32;33927;-82
2024/01/25 09:00:10;;;;;;;;;;;;;;;14.04;40.52;100186.44;4460323;32;33543;-82
2024/01/25 09:02:38;;;;;;;;;;;;;;;14.02;40.63;100170.75;4458256;32;34183;-82
2024/01/25 09:05:06;;;;;;;;;;;;;;;13.61;41.51;100205.66;4451849;32;33495;-81
2024/01/25 09:07:34;;;;;;;;;;;;;;;14.20;40.62;100198.31;4448301;32;34950;-82
2024/01/25 09:10:04;;;;;;;;;;;;;;;14.53;39.36;100172.59;4439727;32;33785;-81
2024/01/25 09:12:32;;;;;;;;;;;;;;;14.01;40.35;100208.06;4426758;32;34120;-82
2024/01/25 09:15:00;;;;;;;;;;;;;;;13.85;40.75;100231.72;4449301;32;34199;-82
2024/01/25 09:17:29;;;;;;;;;;;;;;;14.02;41.14;100219.34;4447767;32;33869;-82
2024/01/25 09:19:58;;;;;;;;;;;;;;;14.46;39.82;100212.28;4436439;32;33713;-82
2024/01/25 09:22:26;;;;;;;;;;;;;;;14.07;41.07;100223.03;4448602;32;34917;-82
2024/01/25 09:24:55;;;;;;;;;;;;;;;14.62;40.08;100212.03;4447610;32;33583;-82
2024/01/25 09:27:22;;;;;;;;;;;;;;;14.72;39.62;100226.28;4441739;32;33643;-82
2024/01/25 09:29:49;;;;;;;;;;;;;;;14.24;41.07;100226.28;4436601;32;33884;-83
2024/01/25 09:32:20;;;;;;;;;;;;;;;14.47;40.27;100232.31;4445049;32;35010;-82
2024/01/25 09:34:48;;;;;;;;;;;;;;;14.20;40.63;100213.94;4439187;32;33237;-82
2024/01/25 09:37:17;;;;;;;;;;;;;;;13.88;41.22;100231.88;4440563;32;34461;-80
2024/01/25 09:39:45;;;;;;;;;;;;;;;13.84;41.85;100238.66;4445306;32;33990;-82
2024/01/25 09:42:13;;;;;;;;;;;;;;;14.43;40.62;100227.81;4446657;32;33940;-81
2024/01/25 09:44:41;;;;;;;;;;;;;;;14.46;39.59;100202.75;4442619;32;34117;-83
2024/01/25 09:47:09;;;;;;;;;;;;;;;14.82;38.15;100202.28;4440869;32;33742;-81
2024/01/25 09:49:37;;;;;;;;;;;;;;;14.49;38.19;100197.66;4446474;32;33405;-82
2024/01/25 09:52:06;;;;;;;;;;;;;;;14.06;38.84;100231.66;4452813;32;34120;-82
2024/01/25 09:54:38;;;;;;;;;;;;;;;14.20;38.69;100225.28;4449992;32;33815;-82
2024/01/25 09:57:07;;;;;;;;;;;;;;;14.56;37.79;100209.16;4448585;32;33976;-82
2024/01/25 09:59:35;;;;;;;;;;;;;;;14.83;37.64;100208.38;4451218;32;33913;-82
2024/01/25 10:02:02;;;;;;;;;;;;;;;15.29;36.90;100223.84;4448765;32;33805;-82
2024/01/25 10:04:30;;;;;;;;;;;;;;;14.66;38.00;100195.66;4449203;32;33550;-82
2024/01/25 10:06:58;;;;;;;;;;;;;;;15.01;37.70;100198.59;4448757;32;34851;-82
2024/01/25 10:09:27;;;;;;;;;;;;;;;15.32;37.16;100210.03;4451049;32;34884;-82
2024/01/25 10:11:54;;;;;;;;;;;;;;;15.30;37.96;100206.47;4450108;32;34889;-82
2024/01/25 10:14:42;;;;;;;;;;;;;;;15.29;38.03;100207.31;4441901;32;33764;-82
2024/01/25 10:17:10;;;;;;;;;;;;;;;14.77;39.22;100213.41;4445384;32;32836;-81
2024/01/25 10:19:38;;;;;;;;;;;;;;;15.22;38.02;100201.00;4447992;32;34792;-82
2024/01/25 10:22:08;;;;;;;;;;;;;;;15.12;37.36;100196.31;4448888;32;32190;-82
2024/01/25 10:24:38;;;;;;;;;;;;;;;14.62;37.12;100172.94;4440074;32;32892;-82
2024/01/25 10:27:07;;;;;;;;;;;;;;;14.11;38.31;100157.19;4450166;32;34799;-81
2024/01/25 10:29:34;;;;;;;;;;;;;;;14.74;38.26;100203.75;4440964;32;34227;-82
2024/01/25 10:32:03;;;;;;;;;;;;;;;14.63;37.69;100194.69;4445582;32;34639;-82
2024/01/25 10:34:30;;;;;;;;;;;;;;;14.22;38.96;100212.31;4443174;32;34041;-81
2024/01/25 10:36:58;;;;;;;;;;;;;;;14.53;38.42;100219.50;4450844;32;33990;-82
2024/01/25 10:39:26;;;;;;;;;;;;;;;14.78;38.23;100194.31;4444890;32;34092;-82
2024/01/25 10:41:53;;;;;;;;;;;;;;;14.74;38.08;100194.22;4441432;32;34327;-81
2024/01/25 10:44:21;;;;;;;;;;;;;;;13.99;39.05;100194.09;4440894;32;33397;-83
2024/01/25 10:46:48;;;;;;;;;;;;;;;13.79;42.22;100201.16;4449046;32;35003;-83
2024/01/25 10:49:17;;;;;;;;;;;;;;;14.17;39.19;100188.66;4444236;32;33748;-82
2024/01/25 10:51:45;;;;;;;;;;;;;;;14.10;38.73;100139.78;4450280;32;34045;-82
2024/01/25 10:54:14;;;;;;;;;;;;;;;13.99;38.65;100190.63;4432013;32;33418;-81
2024/01/25 10:56:41;;;;;;;;;;;;;;;14.43;38.73;100180.88;4427407;32;34981;-82
2024/01/25 10:59:12;;;;;;;;;;;;;;;14.26;38.68;100162.94;4442211;32;34509;-82
2024/01/25 11:01:44;;;;;;;;;;;;;;;14.19;38.82;100188.72;4440325;32;33469;-81
2024/01/25 11:04:15;;;;;;;;;;;;;;;14.21;38.84;100169.72;4447294;32;32808;-83
2024/01/25 11:06:44;;;;;;;;;;;;;;;14.80;37.99;100193.53;4444623;32;34126;-85
2024/01/25 11:09:17;;;;;;;;;;;;;;;14.75;37.44;100175.09;4453369;32;33760;-82
2024/01/25 11:11:49;;;;;;;;;;;;;;;14.92;36.58;100185.22;4453560;32;34781;-82
2024/01/25 11:14:16;;;;;;;;;;;;;;;15.08;36.57;100200.53;4452499;32;33387;-82
2024/01/25 11:16:47;;;;;;;;;;;;;;;14.89;36.61;100208.59;4461686;32;34531;-82
2024/01/25 11:19:16;;;;;;;;;;;;;;;14.99;36.73;100194.13;4441163;32;33389;-82
2024/01/25 11:21:47;;;;;;;;;;;;;;;15.70;35.71;100186.81;4443721;32;33761;-82
2024/01/25 11:24:16;;;;;;;;;;;;;;;15.85;35.54;100184.69;4444439;32;33754;-82
2024/01/25 11:26:47;;;;;;;;;;;;;;;15.34;36.76;100200.50;4433736;32;32349;-82
2024/01/25 11:29:18;;;;;;;;;;;;;;;15.30;36.69;100173.44;4452302;32;33926;-82
2024/01/25 11:31:47;;;;;;;;;;;;;;;15.50;35.91;100184.47;4450718;32;34338;-81
2024/01/25 11:34:15;;;;;;;;;;;;;;;15.06;37.11;100202.22;4443523;32;31971;-82
2024/01/25 11:36:43;;;;;;;;;;;;;;;15.16;36.73;100176.44;4448624;32;33880;-81
2024/01/25 11:39:12;;;;;;;;;;;;;;;15.18;36.23;100185.19;4456560;32;33896;-81
2024/01/25 11:41:39;;;;;;;;;;;;;;;14.94;37.63;100207.03;4453260;32;35142;-82
2024/01/25 11:44:07;;;;;;;;;;;;;;;14.88;36.63;100217.25;4449611;32;33380;-81
2024/01/25 11:46:35;;;;;;;;;;;;;;;14.93;36.88;100186.97;4454003;32;33745;-82
2024/01/25 11:49:05;;;;;;;;;;;;;;;14.86;37.30;100206.78;4454007;32;34581;-81
2024/01/25 11:51:32;;;;;;;;;;;;;;;15.03;36.84;100201.25;4453320;32;33173;-81
2024/01/25 11:54:01;;;;;;;;;;;;;;;14.74;37.27;100196.81;4450839;32;33714;-82
2024/01/25 11:56:29;;;;;;;;;;;;;;;15.23;36.58;100194.06;4451516;32;34027;-81
2024/01/25 11:58:56;;;;;;;;;;;;;;;15.17;36.78;100167.78;4446711;32;32576;-81
2024/01/25 12:01:25;;;;;;;;;;;;;;;15.61;35.87;100207.44;4450024;32;34497;-81
2024/01/25 12:03:54;;;;;;;;;;;;;;;15.40;35.15;100198.09;4452050;32;32888;-81
2024/01/25 12:06:22;;;;;;;;;;;;;;;15.17;35.46;100209.53;4452793;32;34095;-82
2024/01/25 12:08:51;;;;;;;;;;;;;;;14.53;36.73;100177.78;4482352;32;34275;-81
2024/01/25 12:11:21;;;;;;;;;;;;;;;14.68;36.70;100186.19;4441415;32;35571;-82
2024/01/25 12:13:49;;;;;;;;;;;;;;;14.82;36.99;100202.28;4459957;32;33484;-81
2024/01/25 12:16:18;;;;;;;;;;;;;;;14.69;36.24;100179.22;4469568;32;34250;-81
2024/01/25 12:18:46;;;;;;;;;;;;;;;14.75;36.21;100224.66;4472786;32;34883;-81
2024/01/25 12:21:15;;;;;;;;;;;;;;;15.17;35.66;100226.06;4477416;32;34007;-81
2024/01/25 12:23:43;;;;;;;;;;;;;;;14.91;35.50;100222.56;4476328;32;33141;-81
2024/01/25 12:26:11;;;;;;;;;;;;;;;14.90;36.10;100215.59;4472544;32;33155;-81
2024/01/25 12:28:39;;;;;;;;;;;;;;;15.53;34.63;100218.53;4479112;32;34085;-81
2024/01/25 12:31:08;;;;;;;;;;;;;;;15.80;33.94;100230.72;4462088;32;33852;-81
2024/01/25 12:33:36;;;;;;;;;;;;;;;15.79;34.01;100230.66;4456455;32;34266;-80
2024/01/25 12:36:04;;;;;;;;;;;;;;;15.74;34.40;100204.38;4472801;32;34508;-81
2024/01/25 12:38:34;;;;;;;;;;;;;;;15.97;34.11;100214.63;4463860;32;33694;-85
2024/01/25 12:41:03;;;;;;;;;;;;;;;15.77;35.66;100229.72;4463079;32;34296;-81